createdAt,value
2022-10-29T00:00:29.402Z,89.30
2022-10-29T00:01:25.127Z,89.44
2022-10-29T00:02:20.382Z,89.47
2022-10-29T00:03:15.680Z,89.58
2022-10-29T00:04:11.614Z,89.65
2022-10-29T00:05:06.771Z,89.63
2022-10-29T00:06:02.560Z,89.57
2022-10-29T00:06:57.651Z,89.54
2022-10-29T00:07:53.372Z,89.44
2022-10-29T00:08:48.693Z,89.43
2022-10-29T00:09:43.911Z,89.35
2022-10-29T00:10:39.279Z,89.42
2022-10-29T00:11:35.606Z,89.49
2022-10-29T00:12:30.956Z,89.43
2022-10-29T00:13:26.789Z,89.36
2022-10-29T00:14:22.010Z,89.37
2022-10-29T00:15:17.404Z,89.35
2022-10-29T00:16:13.063Z,89.16
2022-10-29T00:17:08.514Z,89.29
2022-10-29T00:18:04.165Z,89.36
2022-10-29T00:18:59.315Z,89.29
2022-10-29T00:19:54.863Z,89.34
2022-10-29T00:20:50.488Z,89.32
2022-10-29T00:21:45.880Z,89.16
2022-10-29T00:22:41.060Z,89.06
2022-10-29T00:23:37.335Z,88.85
2022-10-29T00:24:32.561Z,88.88
2022-10-29T00:25:28.369Z,89.11
2022-10-29T00:26:23.580Z,89.27
2022-10-29T00:27:18.866Z,89.30
2022-10-29T00:28:14.596Z,89.34
2022-10-29T00:29:09.843Z,89.39
2022-10-29T00:30:05.005Z,89.40
2022-10-29T00:31:00.258Z,89.38
2022-10-29T00:31:56.077Z,89.38
2022-10-29T00:32:51.329Z,89.40
2022-10-29T00:33:46.587Z,89.54
2022-10-29T00:34:43.014Z,89.70
2022-10-29T00:35:38.238Z,89.63
2022-10-29T00:36:33.960Z,89.54
2022-10-29T00:37:29.428Z,89.42
2022-10-29T00:38:24.680Z,89.24
2022-10-29T00:39:20.340Z,89.25
2022-10-29T00:40:15.601Z,89.31
2022-10-29T00:41:11.373Z,89.35
2022-10-29T00:42:06.542Z,89.42
2022-10-29T00:43:01.942Z,89.44
2022-10-29T00:43:57.735Z,89.62
2022-10-29T00:44:52.993Z,89.80
2022-10-29T00:45:48.284Z,89.81
2022-10-29T00:46:44.620Z,89.55
2022-10-29T00:47:39.799Z,89.55
2022-10-29T00:48:34.998Z,89.59
2022-10-29T00:49:30.369Z,89.54
2022-10-29T00:50:25.566Z,89.51
2022-10-29T00:51:20.598Z,89.63
2022-10-29T00:52:15.691Z,89.50
2022-10-29T00:53:10.724Z,89.62
2022-10-29T00:54:06.164Z,89.76
2022-10-29T00:55:00.918Z,89.85
2022-10-29T00:55:56.026Z,90.06
2022-10-29T00:56:51.084Z,90.19
2022-10-29T00:57:46.197Z,90.36
2022-10-29T00:58:44.187Z,90.36
2022-10-29T00:59:39.341Z,90.51
2022-10-29T01:00:34.299Z,90.62
2022-10-29T01:01:29.435Z,90.61
2022-10-29T01:02:24.466Z,90.48
2022-10-29T01:03:19.411Z,90.41
2022-10-29T01:04:14.762Z,90.35
2022-10-29T01:05:09.513Z,90.37
2022-10-29T01:06:04.584Z,90.37
2022-10-29T01:06:59.671Z,90.25
2022-10-29T01:07:54.765Z,90.32
2022-10-29T01:08:49.845Z,90.09
2022-10-29T01:09:44.971Z,90.16
2022-10-29T01:10:40.041Z,90.04
2022-10-29T01:11:35.105Z,89.94
2022-10-29T01:12:30.099Z,89.94
2022-10-29T01:13:25.299Z,89.98
2022-10-29T01:14:20.336Z,89.96
2022-10-29T01:15:17.856Z,89.97
2022-10-29T01:16:12.383Z,89.79
2022-10-29T01:17:07.954Z,89.76
2022-10-29T01:18:03.139Z,89.90
2022-10-29T01:18:58.416Z,89.95
2022-10-29T01:19:53.808Z,89.85
2022-10-29T01:20:48.899Z,89.76
2022-10-29T01:21:44.349Z,89.80
2022-10-29T01:22:39.538Z,89.93
2022-10-29T01:23:34.723Z,90.03
2022-10-29T01:24:30.009Z,90.14
2022-10-29T01:25:25.252Z,90.26
2022-10-29T01:26:20.465Z,90.29
2022-10-29T01:27:15.678Z,90.32
2022-10-29T01:28:10.914Z,90.44
2022-10-29T01:29:06.247Z,90.48
2022-10-29T01:30:01.594Z,90.50
2022-10-29T01:30:56.736Z,90.50
2022-10-29T01:31:51.967Z,90.51
2022-10-29T01:32:47.205Z,90.53
2022-10-29T01:33:42.425Z,90.51
2022-10-29T01:34:37.774Z,90.67
2022-10-29T01:35:34.938Z,90.68
2022-10-29T01:36:30.175Z,90.70
2022-10-29T01:37:25.496Z,90.79
2022-10-29T01:38:20.750Z,90.65
2022-10-29T01:39:15.941Z,90.73
2022-10-29T01:40:11.193Z,90.71
2022-10-29T01:41:06.497Z,90.72
2022-10-29T01:42:01.290Z,90.64
2022-10-29T01:42:56.601Z,90.69
2022-10-29T01:43:51.499Z,90.65
2022-10-29T01:44:46.502Z,90.48
2022-10-29T01:45:41.598Z,90.33
2022-10-29T01:46:36.849Z,90.25
2022-10-29T01:47:32.356Z,90.28
2022-10-29T01:48:30.421Z,90.36
2022-10-29T01:49:23.515Z,90.49
2022-10-29T01:50:17.527Z,90.53
2022-10-29T01:51:12.590Z,90.57
2022-10-29T01:52:07.827Z,90.74
2022-10-29T01:53:02.763Z,90.83
2022-10-29T01:53:57.843Z,90.82
2022-10-29T01:54:52.918Z,91.04
2022-10-29T01:55:48.018Z,91.06
2022-10-29T01:56:43.025Z,91.13
2022-10-29T01:57:38.141Z,91.04
2022-10-29T01:58:33.256Z,90.96
2022-10-29T01:59:35.653Z,90.85
2022-10-29T02:00:24.260Z,90.89
2022-10-29T02:01:18.651Z,91.02
2022-10-29T02:02:13.926Z,90.96
2022-10-29T02:03:09.911Z,90.88
2022-10-29T02:04:04.988Z,90.92
2022-10-29T02:05:00.887Z,90.73
2022-10-29T02:05:55.984Z,90.77
2022-10-29T02:06:51.235Z,90.69
2022-10-29T02:07:47.193Z,90.59
2022-10-29T02:08:42.283Z,90.48
2022-10-29T02:09:37.627Z,90.39
2022-10-29T02:10:33.979Z,90.40
2022-10-29T02:11:29.354Z,90.41
2022-10-29T02:12:25.023Z,90.48
2022-10-29T02:13:20.412Z,90.51
2022-10-29T02:14:15.789Z,90.54
2022-10-29T02:15:11.462Z,90.63
2022-10-29T02:16:06.679Z,90.71
2022-10-29T02:17:02.475Z,90.81
2022-10-29T02:17:58.015Z,90.90
2022-10-29T02:18:53.115Z,90.98
2022-10-29T02:19:48.786Z,91.11
2022-10-29T02:20:44.016Z,91.17
2022-10-29T02:21:39.184Z,91.24
2022-10-29T02:22:35.765Z,91.30
2022-10-29T02:23:31.172Z,91.34
2022-10-29T02:24:26.811Z,91.43
2022-10-29T02:25:22.075Z,91.61
2022-10-29T02:26:17.376Z,91.65
2022-10-29T02:27:13.104Z,91.59
2022-10-29T02:28:08.421Z,91.53
2022-10-29T02:29:04.104Z,91.41
2022-10-29T02:29:59.340Z,91.26
2022-10-29T02:30:54.708Z,91.26
2022-10-29T02:31:50.475Z,91.24
2022-10-29T02:32:45.724Z,91.19
2022-10-29T02:33:41.259Z,91.19
2022-10-29T02:34:37.263Z,91.23
2022-10-29T02:35:32.487Z,91.31
2022-10-29T02:36:28.201Z,91.37
2022-10-29T02:37:23.395Z,91.39
2022-10-29T02:38:18.624Z,91.38
2022-10-29T02:39:14.583Z,91.35
2022-10-29T02:40:09.673Z,91.29
2022-10-29T02:41:05.591Z,91.33
2022-10-29T02:42:00.682Z,91.36
2022-10-29T02:42:56.243Z,91.37
2022-10-29T02:43:51.669Z,91.36
2022-10-29T02:44:46.971Z,91.32
2022-10-29T02:45:42.331Z,91.28
2022-10-29T02:46:38.650Z,91.23
2022-10-29T02:47:33.896Z,91.26
2022-10-29T02:48:29.677Z,91.38
2022-10-29T02:49:24.819Z,91.45
2022-10-29T02:50:20.339Z,91.42
2022-10-29T02:51:15.998Z,91.36
2022-10-29T02:52:11.236Z,91.42
2022-10-29T02:53:07.030Z,91.39
2022-10-29T02:54:02.158Z,91.36
2022-10-29T02:54:57.515Z,91.34
2022-10-29T02:55:53.285Z,91.40
2022-10-29T02:56:48.469Z,91.39
2022-10-29T02:57:43.714Z,91.49
2022-10-29T02:58:38.916Z,91.53
2022-10-29T02:59:34.694Z,91.53
2022-10-29T03:00:29.868Z,91.40
2022-10-29T03:01:25.679Z,91.32
2022-10-29T03:02:21.059Z,91.21
2022-10-29T03:03:16.321Z,91.07
2022-10-29T03:04:12.104Z,90.93
2022-10-29T03:05:07.428Z,90.78
2022-10-29T03:06:02.771Z,90.63
2022-10-29T03:06:58.770Z,90.69
2022-10-29T03:07:53.707Z,90.76
2022-10-29T03:08:48.958Z,90.84
2022-10-29T03:09:45.531Z,90.91
2022-10-29T03:10:40.913Z,90.99
2022-10-29T03:11:36.694Z,91.01
2022-10-29T03:12:31.910Z,91.02
2022-10-29T03:13:27.201Z,91.10
2022-10-29T03:14:22.957Z,91.07
2022-10-29T03:15:18.180Z,90.97
2022-10-29T03:16:13.387Z,91.07
2022-10-29T03:17:08.884Z,91.07
2022-10-29T03:18:03.979Z,91.06
2022-10-29T03:18:59.186Z,91.06
2022-10-29T03:19:54.527Z,91.00
2022-10-29T03:20:50.737Z,91.11
2022-10-29T03:21:45.957Z,91.12
2022-10-29T03:22:41.475Z,91.02
2022-10-29T03:23:37.012Z,90.94
2022-10-29T03:24:32.227Z,90.82
2022-10-29T03:25:27.481Z,90.78
2022-10-29T03:26:22.809Z,90.75
2022-10-29T03:27:17.864Z,90.78
2022-10-29T03:28:13.144Z,90.74
2022-10-29T03:29:07.953Z,90.84
2022-10-29T03:30:02.953Z,90.83
2022-10-29T03:30:58.070Z,90.94
2022-10-29T03:31:57.324Z,90.92
2022-10-29T03:32:52.548Z,91.06
2022-10-29T03:33:47.570Z,91.19
2022-10-29T03:34:42.533Z,91.46
2022-10-29T03:35:37.652Z,91.52
2022-10-29T03:36:32.754Z,91.52
2022-10-29T03:37:27.831Z,91.55
2022-10-29T03:38:22.943Z,91.56
2022-10-29T03:39:18.060Z,91.47
2022-10-29T03:40:13.138Z,91.57
2022-10-29T03:41:08.136Z,91.51
2022-10-29T03:42:03.196Z,91.46
2022-10-29T03:42:58.554Z,91.43
2022-10-29T03:43:53.273Z,91.33
2022-10-29T03:44:48.397Z,91.29
2022-10-29T03:45:43.797Z,91.27
2022-10-29T03:46:38.812Z,91.21
2022-10-29T03:47:33.867Z,91.21
2022-10-29T03:48:28.957Z,91.12
2022-10-29T03:49:24.018Z,91.25
2022-10-29T03:50:19.097Z,91.20
2022-10-29T03:51:14.137Z,91.14
2022-10-29T03:52:09.199Z,91.15
2022-10-29T03:53:04.304Z,91.17
2022-10-29T03:53:59.387Z,91.18
2022-10-29T03:54:54.481Z,91.18
2022-10-29T03:55:49.580Z,91.14
2022-10-29T03:56:44.669Z,91.11
2022-10-29T03:57:39.637Z,91.05
2022-10-29T03:58:34.898Z,90.96
2022-10-29T03:59:29.889Z,91.00
2022-10-29T04:00:26.555Z,91.10
2022-10-29T04:01:21.716Z,91.00
2022-10-29T04:02:16.756Z,90.98
2022-10-29T04:03:11.636Z,90.91
2022-10-29T04:04:06.723Z,90.93
2022-10-29T04:05:01.775Z,90.89
2022-10-29T04:05:56.822Z,90.81
2022-10-29T04:06:51.895Z,90.89
2022-10-29T04:07:46.944Z,90.88
2022-10-29T04:08:42.223Z,90.82
2022-10-29T04:09:37.049Z,90.84
2022-10-29T04:10:32.112Z,90.90
2022-10-29T04:11:27.607Z,90.86
2022-10-29T04:12:22.960Z,90.86
2022-10-29T04:13:18.215Z,90.89
2022-10-29T04:14:13.994Z,90.99
2022-10-29T04:15:09.231Z,91.08
2022-10-29T04:16:05.180Z,91.05
2022-10-29T04:17:00.230Z,91.11
2022-10-29T04:17:55.734Z,91.17
2022-10-29T04:18:51.230Z,91.17
2022-10-29T04:19:46.480Z,91.08
2022-10-29T04:21:31.300Z,91.03
2022-10-29T04:29:05.239Z,90.88
2022-10-29T04:29:59.436Z,90.88
2022-10-29T04:30:55.321Z,90.93
2022-10-29T04:31:50.567Z,90.91
2022-10-29T04:32:45.797Z,90.95
2022-10-29T04:33:41.565Z,90.91
2022-10-29T04:34:36.810Z,90.93
2022-10-29T04:35:32.711Z,90.91
2022-10-29T04:36:27.820Z,91.06
2022-10-29T04:37:23.073Z,91.10
2022-10-29T04:38:18.900Z,91.09
2022-10-29T04:39:15.458Z,91.06
2022-10-29T04:40:09.480Z,91.07
2022-10-29T04:41:04.525Z,91.18
2022-10-29T04:41:59.602Z,91.19
2022-10-29T04:42:54.937Z,91.21
2022-10-29T04:43:50.091Z,91.21
2022-10-29T04:44:44.918Z,91.21
2022-10-29T04:45:40.050Z,91.21
2022-10-29T04:46:35.118Z,91.25
2022-10-29T04:47:30.208Z,91.14
2022-10-29T04:48:25.452Z,91.03
2022-10-29T04:49:20.657Z,91.07
2022-10-29T04:50:15.616Z,91.09
2022-10-29T04:51:12.120Z,91.04
2022-10-29T04:52:07.202Z,91.01
2022-10-29T04:53:02.305Z,90.90
2022-10-29T04:53:57.572Z,90.74
2022-10-29T04:54:52.503Z,90.68
2022-10-29T04:55:47.581Z,90.66
2022-10-29T04:56:42.667Z,90.71
2022-10-29T04:57:37.682Z,90.75
2022-10-29T04:58:32.814Z,90.80
2022-10-29T04:59:27.951Z,90.80
2022-10-29T05:00:22.912Z,90.84
2022-10-29T05:01:18.291Z,90.95
2022-10-29T05:02:13.316Z,91.04
2022-10-29T05:03:08.520Z,91.14
2022-10-29T05:04:04.639Z,91.17
2022-10-29T05:04:59.750Z,91.19
2022-10-29T05:05:54.974Z,91.19
2022-10-29T05:06:51.369Z,91.14
2022-10-29T05:07:46.592Z,91.05
2022-10-29T05:08:42.376Z,91.01
2022-10-29T05:09:37.589Z,90.98
2022-10-29T05:10:32.793Z,90.91
2022-10-29T05:11:28.570Z,90.98
2022-10-29T05:12:23.867Z,91.03
2022-10-29T05:13:19.739Z,91.04
2022-10-29T05:14:14.868Z,91.20
2022-10-29T05:15:10.078Z,91.22
2022-10-29T05:16:05.330Z,91.16
2022-10-29T05:17:00.610Z,91.06
2022-10-29T05:17:56.363Z,90.97
2022-10-29T05:18:51.255Z,90.94
2022-10-29T05:19:46.667Z,90.92
2022-10-29T05:20:42.254Z,90.90
2022-10-29T05:21:38.477Z,90.93
2022-10-29T05:22:33.640Z,90.86
2022-10-29T05:23:28.764Z,90.91
2022-10-29T05:24:28.097Z,90.86
2022-10-29T05:25:23.396Z,90.89
2022-10-29T05:26:18.957Z,90.80
2022-10-29T05:27:14.229Z,90.79
2022-10-29T05:28:08.942Z,90.78
2022-10-29T05:29:04.013Z,90.87
2022-10-29T05:29:59.044Z,90.89
2022-10-29T05:30:54.063Z,90.90
2022-10-29T05:31:49.316Z,91.03
2022-10-29T05:32:44.317Z,90.89
2022-10-29T05:33:39.339Z,90.87
2022-10-29T05:34:34.735Z,90.86
2022-10-29T05:35:29.562Z,90.99
2022-10-29T05:36:24.570Z,90.88
2022-10-29T05:37:19.745Z,90.94
2022-10-29T05:38:14.791Z,90.91
2022-10-29T05:39:10.049Z,90.92
2022-10-29T05:40:05.115Z,90.94
2022-10-29T05:41:00.229Z,90.99
2022-10-29T05:41:55.265Z,91.01
2022-10-29T05:42:50.226Z,91.01
2022-10-29T05:43:45.234Z,91.11
2022-10-29T05:44:40.325Z,91.09
2022-10-29T05:45:35.428Z,90.95
2022-10-29T05:46:30.476Z,90.91
2022-10-29T05:47:25.588Z,90.85
2022-10-29T05:48:20.614Z,90.83
2022-10-29T05:49:18.730Z,90.83
2022-10-29T05:50:13.736Z,90.86
2022-10-29T05:51:08.775Z,90.94
2022-10-29T05:52:04.442Z,90.97
2022-10-29T05:52:59.044Z,91.11
2022-10-29T05:53:53.942Z,91.22
2022-10-29T05:54:49.297Z,91.26
2022-10-29T05:55:44.034Z,91.20
2022-10-29T05:56:39.105Z,91.06
2022-10-29T05:57:34.137Z,91.10
2022-10-29T05:58:29.319Z,91.07
2022-10-29T05:59:24.223Z,91.05
2022-10-29T06:00:19.229Z,91.04
2022-10-29T06:01:14.408Z,90.99
2022-10-29T06:02:09.804Z,90.91
2022-10-29T06:03:07.709Z,90.81
2022-10-29T06:04:02.749Z,90.77
2022-10-29T06:04:57.826Z,90.71
2022-10-29T06:05:53.746Z,90.64
2022-10-29T06:06:47.986Z,90.54
2022-10-29T06:07:43.445Z,90.48
2022-10-29T06:08:37.961Z,90.49
2022-10-29T06:09:33.042Z,90.49
2022-10-29T06:10:28.166Z,90.43
2022-10-29T06:11:23.499Z,90.49
2022-10-29T06:12:18.496Z,90.41
2022-10-29T06:13:13.951Z,90.58
2022-10-29T06:14:10.296Z,90.65
2022-10-29T06:15:05.723Z,90.59
2022-10-29T06:16:00.452Z,90.57
2022-10-29T06:16:56.457Z,90.60
2022-10-29T06:17:51.820Z,90.59
2022-10-29T06:18:47.620Z,90.51
2022-10-29T06:19:42.941Z,90.52
2022-10-29T06:20:38.455Z,90.54
2022-10-29T06:21:34.196Z,90.62
2022-10-29T06:22:29.611Z,90.55
2022-10-29T06:23:24.987Z,90.56
2022-10-29T06:24:21.521Z,90.56
2022-10-29T06:25:16.887Z,90.65
2022-10-29T06:26:12.768Z,90.76
2022-10-29T06:27:08.032Z,90.83
2022-10-29T06:28:03.418Z,90.87
2022-10-29T06:28:59.254Z,90.96
2022-10-29T06:29:54.805Z,90.97
2022-10-29T06:30:51.111Z,90.98
2022-10-29T06:31:45.722Z,91.01
2022-10-29T06:32:41.126Z,91.07
2022-10-29T06:33:37.384Z,91.04
2022-10-29T06:34:32.711Z,90.94
2022-10-29T06:35:28.323Z,90.69
2022-10-29T06:36:24.567Z,90.86
2022-10-29T06:37:19.867Z,90.95
2022-10-29T06:38:15.858Z,90.99
2022-10-29T06:39:11.298Z,90.90
2022-10-29T06:40:06.740Z,90.81
2022-10-29T06:41:02.469Z,90.71
2022-10-29T06:41:58.512Z,90.58
2022-10-29T06:42:53.763Z,90.50
2022-10-29T06:43:49.218Z,90.49
2022-10-29T06:44:44.487Z,90.45
2022-10-29T06:45:40.410Z,90.39
2022-10-29T06:46:35.730Z,90.28
2022-10-29T06:47:31.308Z,90.28
2022-10-29T06:48:27.423Z,90.26
2022-10-29T06:49:22.909Z,90.26
2022-10-29T06:50:18.749Z,90.25
2022-10-29T06:51:14.279Z,90.23
2022-10-29T06:52:09.707Z,90.30
2022-10-29T06:53:05.460Z,90.33
2022-10-29T06:54:00.884Z,90.41
2022-10-29T06:54:56.772Z,90.22
2022-10-29T06:55:52.217Z,90.17
2022-10-29T06:56:47.682Z,90.17
2022-10-29T06:57:43.440Z,90.15
2022-10-29T06:58:38.748Z,90.28
2022-10-29T06:59:34.530Z,90.37
2022-10-29T07:00:30.697Z,90.47
2022-10-29T07:01:27.762Z,90.60
2022-10-29T07:02:22.461Z,90.72
2022-10-29T07:03:17.598Z,90.92
2022-10-29T07:04:13.211Z,91.01
2022-10-29T07:05:08.989Z,91.14
2022-10-29T07:06:04.507Z,91.29
2022-10-29T07:06:59.962Z,91.41
2022-10-29T07:07:56.058Z,91.46
2022-10-29T07:08:51.328Z,91.43
2022-10-29T07:09:46.920Z,91.43
2022-10-29T07:10:43.224Z,91.49
2022-10-29T07:11:38.585Z,91.43
2022-10-29T07:12:34.477Z,91.41
2022-10-29T07:13:29.971Z,91.46
2022-10-29T07:14:25.484Z,91.51
2022-10-29T07:15:25.635Z,91.46
2022-10-29T07:16:17.398Z,91.44
2022-10-29T07:17:13.165Z,91.54
2022-10-29T07:18:09.747Z,91.52
2022-10-29T07:19:05.278Z,91.44
2022-10-29T07:20:00.803Z,91.28
2022-10-29T07:20:56.184Z,91.04
2022-10-29T07:21:52.968Z,90.84
2022-10-29T07:22:48.288Z,90.63
2022-10-29T07:23:43.803Z,90.52
2022-10-29T07:24:40.412Z,90.32
2022-10-29T07:25:35.900Z,90.15
2022-10-29T07:26:31.425Z,89.96
2022-10-29T07:27:26.970Z,89.79
2022-10-29T07:28:22.072Z,89.66
2022-10-29T07:29:17.053Z,89.64
2022-10-29T07:30:12.091Z,89.42
2022-10-29T07:31:07.619Z,89.17
2022-10-29T07:32:02.626Z,89.08
2022-10-29T07:32:57.373Z,88.56
2022-10-29T07:33:52.332Z,88.48
2022-10-29T07:34:47.389Z,88.19
2022-10-29T07:35:42.435Z,87.96
2022-10-29T07:36:37.546Z,87.31
2022-10-29T07:37:32.620Z,86.62
2022-10-29T07:38:27.760Z,85.84
2022-10-29T07:39:23.750Z,85.64
2022-10-29T07:40:17.955Z,85.57
2022-10-29T07:41:12.980Z,85.29
2022-10-29T07:42:08.002Z,84.64
2022-10-29T07:43:03.253Z,83.96
2022-10-29T07:43:58.337Z,83.75
2022-10-29T07:44:53.360Z,83.21
2022-10-29T07:45:48.617Z,82.56
2022-10-29T07:46:44.022Z,82.13
2022-10-29T07:47:38.765Z,81.71
2022-10-29T07:48:33.716Z,81.89
2022-10-29T07:49:32.839Z,81.78
2022-10-29T07:50:26.871Z,81.12
2022-10-29T07:51:22.108Z,81.27
2022-10-29T07:52:16.997Z,80.91
2022-10-29T07:53:12.573Z,80.43
2022-10-29T07:54:12.247Z,79.96
2022-10-29T07:55:04.112Z,79.72
2022-10-29T07:55:58.059Z,79.12
2022-10-29T07:56:53.080Z,78.68
2022-10-29T07:57:48.240Z,78.06
2022-10-29T07:58:43.267Z,77.81
2022-10-29T07:59:38.430Z,77.83
2022-10-29T08:00:33.515Z,77.26
2022-10-29T08:01:28.652Z,77.03
2022-10-29T08:02:23.605Z,76.49
2022-10-29T08:03:18.654Z,76.41
2022-10-29T08:04:13.823Z,75.70
2022-10-29T08:05:09.621Z,75.19
2022-10-29T08:06:05.120Z,74.90
2022-10-29T08:07:00.394Z,75.12
2022-10-29T08:07:55.925Z,75.21
2022-10-29T08:08:51.093Z,74.97
2022-10-29T08:09:46.655Z,75.34
2022-10-29T08:10:44.067Z,75.51
2022-10-29T08:11:37.596Z,75.68
2022-10-29T08:12:37.132Z,75.59
2022-10-29T08:13:32.140Z,75.39
2022-10-29T08:14:27.589Z,75.11
2022-10-29T08:15:23.244Z,73.95
2022-10-29T08:16:18.723Z,73.47
2022-10-29T08:17:14.151Z,72.79
2022-10-29T08:18:09.627Z,72.25
2022-10-29T08:19:07.061Z,72.17
2022-10-29T08:20:00.567Z,72.01
2022-10-29T08:20:56.216Z,71.20
2022-10-29T08:21:52.390Z,71.46
2022-10-29T08:22:47.956Z,71.34
2022-10-29T08:23:43.264Z,71.59
2022-10-29T08:24:38.706Z,71.96
2022-10-29T08:25:34.992Z,72.10
2022-10-29T08:26:30.872Z,72.05
2022-10-29T08:27:24.822Z,72.31
2022-10-29T08:28:21.812Z,72.43
2022-10-29T08:29:15.120Z,73.11
2022-10-29T08:30:10.535Z,72.46
2022-10-29T08:31:06.342Z,71.53
2022-10-29T08:32:01.579Z,71.10
2022-10-29T08:32:57.519Z,70.54
2022-10-29T08:33:53.191Z,70.22
2022-10-29T08:34:48.094Z,70.15
2022-10-29T08:35:43.170Z,70.09
2022-10-29T08:36:39.259Z,69.46
2022-10-29T08:37:33.219Z,69.29
2022-10-29T08:38:28.285Z,68.22
2022-10-29T08:39:23.391Z,67.94
2022-10-29T08:40:18.497Z,68.16
2022-10-29T08:41:13.600Z,67.98
2022-10-29T08:42:08.683Z,67.24
2022-10-29T08:43:03.745Z,66.36
2022-10-29T08:43:58.871Z,65.87
2022-10-29T08:44:54.734Z,66.37
2022-10-29T08:45:49.808Z,66.76
2022-10-29T08:46:44.917Z,66.85
2022-10-29T08:47:40.013Z,66.30
2022-10-29T08:48:36.094Z,65.28
2022-10-29T08:49:31.103Z,64.14
2022-10-29T08:50:26.994Z,63.63
2022-10-29T08:51:22.217Z,64.21
2022-10-29T08:52:17.893Z,64.75
2022-10-29T08:53:22.873Z,64.31
2022-10-29T08:54:29.682Z,64.36
2022-10-29T08:55:05.036Z,64.25
2022-10-29T08:55:59.594Z,64.73
2022-10-29T08:56:55.231Z,65.18
2022-10-29T08:57:50.694Z,65.43
2022-10-29T08:58:46.018Z,65.19
2022-10-29T08:59:41.443Z,65.46
2022-10-29T09:00:36.955Z,65.91
2022-10-29T09:01:32.078Z,65.53
2022-10-29T09:02:26.974Z,63.49
2022-10-29T09:03:22.014Z,63.03
2022-10-29T09:04:17.089Z,63.66
2022-10-29T09:05:12.171Z,64.49
2022-10-29T09:06:07.283Z,63.61
2022-10-29T09:07:02.297Z,63.17
2022-10-29T09:08:02.179Z,61.81
2022-10-29T09:08:54.682Z,61.61
2022-10-29T09:09:49.796Z,61.61
2022-10-29T09:10:44.875Z,61.85
2022-10-29T09:11:40.071Z,62.60
2022-10-29T09:12:35.083Z,62.51
2022-10-29T09:13:30.166Z,61.73
2022-10-29T09:14:25.283Z,61.03
2022-10-29T09:15:20.805Z,61.00
2022-10-29T09:16:16.153Z,60.31
2022-10-29T09:17:14.644Z,61.27
2022-10-29T09:18:07.768Z,61.66
2022-10-29T09:19:03.261Z,61.14
2022-10-29T09:19:58.220Z,60.57
2022-10-29T09:20:53.400Z,59.20
2022-10-29T09:21:48.899Z,58.04
2022-10-29T09:22:44.474Z,56.57
2022-10-29T09:23:39.834Z,56.50
2022-10-29T09:24:35.371Z,57.21
2022-10-29T09:25:30.708Z,56.98
2022-10-29T09:26:25.790Z,56.22
2022-10-29T09:27:20.866Z,54.87
2022-10-29T09:28:16.103Z,55.43
2022-10-29T09:29:11.446Z,55.03
2022-10-29T09:30:06.218Z,54.92
2022-10-29T09:31:05.795Z,55.02
2022-10-29T09:32:00.745Z,56.28
2022-10-29T09:32:56.162Z,56.80
2022-10-29T09:33:51.128Z,56.93
2022-10-29T09:34:46.030Z,57.44
2022-10-29T09:35:41.113Z,57.30
2022-10-29T09:36:36.215Z,56.99
2022-10-29T09:37:31.331Z,57.18
2022-10-29T09:38:26.424Z,57.18
2022-10-29T09:39:24.455Z,56.44
2022-10-29T09:40:16.754Z,55.80
2022-10-29T09:41:12.460Z,54.81
2022-10-29T09:42:06.704Z,54.12
2022-10-29T09:43:01.685Z,54.43
2022-10-29T09:43:56.783Z,54.93
2022-10-29T09:44:51.855Z,54.40
2022-10-29T09:45:48.406Z,54.28
2022-10-29T09:46:46.205Z,54.14
2022-10-29T09:47:41.250Z,54.16
2022-10-29T09:48:36.321Z,53.90
2022-10-29T09:49:31.338Z,53.56
2022-10-29T09:50:26.884Z,53.45
2022-10-29T09:51:22.282Z,52.23
2022-10-29T09:52:17.802Z,51.91
2022-10-29T09:53:14.494Z,51.87
2022-10-29T09:54:09.753Z,52.06
2022-10-29T09:55:04.723Z,52.48
2022-10-29T09:56:00.192Z,52.22
2022-10-29T09:56:56.062Z,52.79
2022-10-29T09:57:51.224Z,51.71
2022-10-29T09:58:46.230Z,52.14
2022-10-29T09:59:41.189Z,52.14
2022-10-29T10:00:36.282Z,52.53
2022-10-29T10:01:31.370Z,52.27
2022-10-29T10:02:26.588Z,51.28
2022-10-29T10:03:21.604Z,50.60
2022-10-29T10:04:16.556Z,50.11
2022-10-29T10:05:11.624Z,50.46
2022-10-29T10:06:07.127Z,50.22
2022-10-29T10:07:01.705Z,50.41
2022-10-29T10:07:56.908Z,50.28
2022-10-29T10:08:52.208Z,50.48
2022-10-29T10:09:47.592Z,50.07
2022-10-29T10:10:43.403Z,50.19
2022-10-29T10:11:38.726Z,49.87
2022-10-29T10:12:34.053Z,49.43
2022-10-29T10:13:29.348Z,50.10
2022-10-29T10:14:24.152Z,50.98
2022-10-29T10:15:19.220Z,51.43
2022-10-29T10:16:14.506Z,51.96
2022-10-29T10:17:09.447Z,51.81
2022-10-29T10:18:04.514Z,51.80
2022-10-29T10:18:59.633Z,51.61
2022-10-29T10:19:54.700Z,50.80
2022-10-29T10:20:49.747Z,49.48
2022-10-29T10:21:44.839Z,48.62
2022-10-29T10:22:39.900Z,48.31
2022-10-29T10:23:34.955Z,47.82
2022-10-29T10:24:30.017Z,47.49
2022-10-29T10:25:25.232Z,46.73
2022-10-29T10:26:20.349Z,47.22
2022-10-29T10:27:15.428Z,47.08
2022-10-29T10:28:10.582Z,47.13
2022-10-29T10:29:05.932Z,46.94
2022-10-29T10:30:01.111Z,47.12
2022-10-29T10:30:56.346Z,47.29
2022-10-29T10:31:53.792Z,46.16
2022-10-29T10:32:49.214Z,45.86
2022-10-29T10:33:44.281Z,46.11
2022-10-29T10:34:39.727Z,45.65
2022-10-29T10:35:35.235Z,45.25
2022-10-29T10:36:30.283Z,46.50
2022-10-29T10:37:25.355Z,46.52
2022-10-29T10:38:20.398Z,46.27
2022-10-29T10:39:15.428Z,46.64
2022-10-29T10:40:10.453Z,47.58
2022-10-29T10:41:05.544Z,48.14
2022-10-29T10:42:00.531Z,47.95
2022-10-29T10:42:55.621Z,47.99
2022-10-29T10:43:50.824Z,47.19
2022-10-29T10:44:45.671Z,46.95
2022-10-29T10:45:40.763Z,46.63
2022-10-29T10:46:35.873Z,46.50
2022-10-29T10:47:31.314Z,45.88
2022-10-29T10:48:30.956Z,45.31
2022-10-29T10:49:23.205Z,45.26
2022-10-29T10:50:17.329Z,46.20
2022-10-29T10:51:12.945Z,46.26
2022-10-29T10:52:08.236Z,46.29
2022-10-29T10:53:03.695Z,46.44
2022-10-29T10:53:59.215Z,46.10
2022-10-29T10:54:54.776Z,46.59
2022-10-29T10:55:50.394Z,47.23
2022-10-29T10:56:45.894Z,47.45
2022-10-29T10:57:41.372Z,47.47
2022-10-29T10:58:36.878Z,48.24
2022-10-29T10:59:32.392Z,48.29
2022-10-29T11:00:28.286Z,48.76
2022-10-29T11:01:24.152Z,48.50
2022-10-29T11:02:22.452Z,47.91
2022-10-29T11:03:17.616Z,47.63
2022-10-29T11:04:13.069Z,47.67
2022-10-29T11:05:08.573Z,48.23
2022-10-29T11:06:04.104Z,48.48
2022-10-29T11:06:59.825Z,48.75
2022-10-29T11:07:55.297Z,48.35
2022-10-29T11:08:50.447Z,48.29
2022-10-29T11:09:46.336Z,48.39
2022-10-29T11:10:41.443Z,47.40
2022-10-29T11:11:37.027Z,46.94
2022-10-29T11:12:32.347Z,46.35
2022-10-29T11:13:27.847Z,46.64
2022-10-29T11:14:23.330Z,47.36
2022-10-29T11:15:18.822Z,47.53
2022-10-29T11:16:13.938Z,48.24
2022-10-29T11:17:09.035Z,48.24
2022-10-29T11:18:04.882Z,49.02
2022-10-29T11:18:59.209Z,49.34
2022-10-29T11:19:54.284Z,49.74
2022-10-29T11:20:49.642Z,49.41
2022-10-29T11:21:44.415Z,48.68
2022-10-29T11:22:39.492Z,49.09
2022-10-29T11:23:34.596Z,49.23
2022-10-29T11:24:29.706Z,48.82
2022-10-29T11:25:26.154Z,48.16
2022-10-29T11:26:21.170Z,48.29
2022-10-29T11:27:16.195Z,48.74
2022-10-29T11:28:11.526Z,48.67
2022-10-29T11:29:07.475Z,48.25
2022-10-29T11:30:03.193Z,48.60
2022-10-29T11:32:25.114Z,50.35
2022-10-29T11:33:20.290Z,50.71
2022-10-29T11:34:15.736Z,50.03
2022-10-29T11:35:11.443Z,50.40
2022-10-29T11:36:06.591Z,50.89
2022-10-29T11:37:01.999Z,51.13
2022-10-29T11:37:57.746Z,50.93
2022-10-29T11:38:52.836Z,50.83
2022-10-29T11:39:48.380Z,50.74
2022-10-29T11:40:43.749Z,51.20
2022-10-29T11:41:39.258Z,51.43
2022-10-29T11:42:34.690Z,51.83
2022-10-29T11:43:30.163Z,51.81
2022-10-29T11:44:25.703Z,52.20
2022-10-29T11:45:21.616Z,52.11
2022-10-29T11:46:16.399Z,51.83
2022-10-29T11:47:11.798Z,51.85
2022-10-29T11:48:07.274Z,51.25
2022-10-29T11:49:02.678Z,51.46
2022-10-29T11:49:58.168Z,51.66
2022-10-29T11:50:53.971Z,51.50
2022-10-29T11:51:49.167Z,51.53
2022-10-29T11:52:44.643Z,51.20
2022-10-29T11:53:40.115Z,51.35
2022-10-29T11:54:35.726Z,51.74
2022-10-29T11:55:31.297Z,51.65
2022-10-29T11:56:27.213Z,51.53
2022-10-29T11:57:22.082Z,52.02
2022-10-29T11:58:17.670Z,52.28
2022-10-29T11:59:13.136Z,52.82
2022-10-29T12:00:08.529Z,52.98
2022-10-29T12:01:03.970Z,53.32
2022-10-29T12:01:59.819Z,53.40